Deep River, Iowa
Current Conditions -  °F | °C
As of 3:15 AM on Thursday 27 Nov 2014 (Local Time) from KGGI Reporting Station
Overcast Overcast  
Wind Chill:   Ceiling: 1800
Heat Index: 17°   Visibility: 10mi
Dew Point: 13°   Wind: 17mph
Humidity: 86%   Direction: 300°WNW
Pressure: 30.4"   Gusts: 23mph
Location:  41.58°N, 92.37°W
Report Text: KGGI 270915Z AUTO 30015G20KT 10SM SCT011 OVC018 M09/M10 A3040 RMK AO2 T10861105
Loading
Personal Weather Stations






























Interactive Weather Map New forecast layout! Learn more

10-Day Weather Forecast

Advertisements
Track Severe Weather on mobile